Terminal Aerodrome Forecast
Issued by NWS Sterling, VA

Current Version | Previous Version | Graphics & Text | Print | Product List | Glossary On
Versions: 1 2 3 4 5 6 7 8 9 10 11 12 13 14 15 16 17 18 19 20 21 22 23 24 25 26 27
310
FTUS41 KLWX 280907 AAA
TAFDCA
TAF AMD
KDCA 280907Z 2809/2906 00000KT P6SM OVC140
     FM281800 19004KT P6SM SHRA VCTS BKN040CB
     FM290300 29004KT P6SM SHRA VCTS OVC040CB
     FM290500 36004KT P6SM SHRA VCTS OVC040CB=

USA.gov is the U.S. government's official web portal to all federal, state and local government web resources and services.